Time;durP1;ratioP1;P1;durP2;ratioP2;P2;SDS_P1;SDS_P2;PMS_P1;PMS_P2;Temp;Humidity;BMP_temperature;BMP_pressure;BME280_temperature;BME280_humidity;BME280_pressure;Samples;Min_cycle;Max_cycle;Signal;HPM_P1;HPM_P2
2022/06/06 00:00:50;;;;;;;34.92;16.88;;;15.00;99.90;;;;;;5081096;28;20542;-74
2022/06/06 00:03:18;;;;;;;44.10;19.58;;;15.10;99.90;;;;;;5082264;28;20037;-75
2022/06/06 00:05:47;;;;;;;38.25;18.67;;;15.00;99.90;;;;;;5083545;28;20060;-76
2022/06/06 00:08:13;;;;;;;42.40;18.45;;;15.00;99.90;;;;;;5084163;28;20051;-75
2022/06/06 00:10:43;;;;;;;55.13;20.08;;;15.00;99.90;;;;;;5084932;28;20857;-75
2022/06/06 00:13:11;;;;;;;43.67;20.42;;;15.00;99.90;;;;;;5084801;28;20036;-76
2022/06/06 00:15:37;;;;;;;43.25;19.45;;;15.10;99.90;;;;;;5084697;28;20500;-76
2022/06/06 00:18:04;;;;;;;47.15;21.30;;;15.00;99.90;;;;;;5084384;28;20128;-75
2022/06/06 00:20:31;;;;;;;40.42;20.55;;;15.00;99.90;;;;;;5082342;28;20040;-75
2022/06/06 00:22:57;;;;;;;44.65;20.73;;;15.00;99.90;;;;;;5082054;28;20044;-75
2022/06/06 00:25:23;;;;;;;40.40;19.83;;;15.00;99.90;;;;;;5082400;28;20052;-74
2022/06/06 00:27:48;;;;;;;41.20;20.70;;;15.00;99.90;;;;;;5080949;28;20037;-75
2022/06/06 00:30:14;;;;;;;40.95;20.42;;;15.00;99.90;;;;;;5080825;28;20094;-75
2022/06/06 00:35:24;;;;;;;37.45;18.42;;;14.90;99.90;;;;;;5081214;28;20447;-75
2022/06/06 00:37:50;;;;;;;30.55;16.10;;;15.00;99.90;;;;;;5079749;28;20040;-75
2022/06/06 00:40:17;;;;;;;31.88;16.10;;;16.00;99.90;;;;;;5078329;28;20130;-75
2022/06/06 00:42:44;;;;;;;31.20;16.50;;;15.10;99.90;;;;;;5078063;28;20040;-75
2022/06/06 00:45:21;;;;;;;30.95;16.27;;;15.00;99.90;;;;;;5079003;28;20580;-76
2022/06/06 00:48:13;;;;;;;35.60;17.17;;;14.90;99.90;;;;;;5080297;28;20079;-75
2022/06/06 00:51:03;;;;;;;22.77;13.90;;;14.80;99.90;;;;;;5076699;28;20091;-75
2022/06/06 00:53:34;;;;;;;24.88;13.45;;;14.90;99.90;;;;;;5078449;28;20078;-74
2022/06/06 00:56:08;;;;;;;23.63;14.00;;;14.80;99.90;;;;;;5077626;28;20431;-76
2022/06/06 00:58:35;;;;;;;25.17;14.38;;;14.80;99.90;;;;;;5075848;28;20048;-75
2022/06/06 01:01:01;;;;;;;21.80;12.63;;;14.80;99.90;;;;;;5077331;28;20036;-74
2022/06/06 01:03:29;;;;;;;23.02;12.70;;;14.80;99.90;;;;;;5076399;28;20086;-75
2022/06/06 01:05:56;;;;;;;26.15;13.65;;;14.80;99.90;;;;;;5076764;28;20123;-75
2022/06/06 01:08:23;;;;;;;22.83;13.88;;;14.80;99.90;;;;;;5078570;28;20045;-75
2022/06/06 01:10:48;;;;;;;23.33;13.43;;;14.80;99.90;;;;;;5078694;28;20036;-75
2022/06/06 01:13:16;;;;;;;27.85;15.48;;;14.80;99.90;;;;;;5078813;28;20037;-75
2022/06/06 01:16:03;;;;;;;30.00;15.77;;;14.80;99.90;;;;;;5078521;28;20040;-75
2022/06/06 01:18:51;;;;;;;31.30;16.08;;;14.80;99.90;;;;;;5077688;28;20385;-74
2022/06/06 01:21:48;;;;;;;26.77;13.98;;;14.80;99.90;;;;;;5077931;28;20499;-74
2022/06/06 01:24:43;;;;;;;24.85;13.57;;;14.80;99.90;;;;;;5078434;28;20060;-74
2022/06/06 01:27:47;;;;;;;25.63;12.88;;;14.80;99.90;;;;;;5077581;28;20397;-74
2022/06/06 01:30:18;;;;;;;24.48;12.13;;;14.80;99.90;;;;;;5077366;28;20052;-75
2022/06/06 01:32:49;;;;;;;16.33;10.20;;;14.80;99.90;;;;;;5077448;28;20048;-75
2022/06/06 01:35:33;;;;;;;16.90;10.52;;;14.70;99.90;;;;;;5078140;28;20496;-75
2022/06/06 01:37:59;;;;;;;17.10;9.93;;;14.70;99.90;;;;;;5078138;28;20047;-74
2022/06/06 01:40:28;;;;;;;15.15;8.93;;;14.70;99.90;;;;;;5077388;28;20492;-75
2022/06/06 01:43:01;;;;;;;18.23;10.93;;;15.10;99.90;;;;;;5076426;28;20443;-75
2022/06/06 01:45:51;;;;;;;17.33;9.63;;;14.70;99.90;;;;;;5077317;28;20045;-75
2022/06/06 01:48:22;;;;;;;16.23;9.95;;;14.70;99.90;;;;;;5077424;28;20052;-75
2022/06/06 01:50:48;;;;;;;16.98;9.50;;;14.60;99.90;;;;;;5077428;28;20449;-75
2022/06/06 01:53:20;;;;;;;18.00;8.10;;;14.60;99.90;;;;;;5078350;28;20037;-75
2022/06/06 01:55:48;;;;;;;13.80;8.05;;;14.60;99.90;;;;;;5080039;28;20488;-75
2022/06/06 01:58:20;;;;;;;12.50;8.35;;;14.60;99.90;;;;;;5078497;28;20040;-75
2022/06/06 02:00:46;;;;;;;14.85;8.43;;;14.60;99.90;;;;;;5077994;28;20051;-75
2022/06/06 02:03:12;;;;;;;11.57;7.53;;;14.50;99.90;;;;;;5077741;28;20044;-75
2022/06/06 02:05:38;;;;;;;16.30;7.80;;;14.50;99.90;;;;;;5078621;28;20045;-76
2022/06/06 02:08:05;;;;;;;12.57;7.40;;;14.80;99.90;;;;;;5077689;28;20053;-75
2022/06/06 02:10:31;;;;;;;12.32;8.00;;;14.50;99.90;;;;;;5078268;28;20476;-75
2022/06/06 02:12:56;;;;;;;18.58;7.85;;;14.50;99.90;;;;;;5079357;28;20040;-75
2022/06/06 02:15:24;;;;;;;14.07;7.85;;;14.40;99.90;;;;;;5079843;28;20126;-75
2022/06/06 02:17:52;;;;;;;14.75;7.97;;;14.40;99.90;;;;;;5079153;28;20041;-75
2022/06/06 02:20:20;;;;;;;14.07;8.43;;;14.40;99.90;;;;;;5079578;28;20411;-75
2022/06/06 02:22:46;;;;;;;11.30;7.38;;;14.60;99.90;;;;;;5079065;28;20051;-75
2022/06/06 02:25:14;;;;;;;11.98;7.28;;;14.30;99.90;;;;;;5079110;28;20044;-76
2022/06/06 02:27:41;;;;;;;12.38;7.00;;;14.30;99.90;;;;;;5079791;28;20086;-75
2022/06/06 02:30:19;;;;;;;10.45;6.78;;;14.20;99.90;;;;;;5080314;28;20047;-75
2022/06/06 02:32:44;;;;;;;12.82;7.15;;;14.30;99.90;;;;;;5079742;28;20036;-75
2022/06/06 02:35:13;;;;;;;9.63;6.00;;;14.20;99.90;;;;;;5078883;28;20508;-75
2022/06/06 02:37:40;;;;;;;10.35;6.68;;;14.10;99.90;;;;;;5079462;28;20410;-75
2022/06/06 02:40:09;;;;;;;12.73;7.00;;;14.10;99.90;;;;;;5078978;28;20503;-75
2022/06/06 02:42:35;;;;;;;12.55;6.40;;;14.10;99.90;;;;;;5078926;28;20040;-75
2022/06/06 02:45:02;;;;;;;13.98;7.72;;;14.10;99.90;;;;;;5078511;28;20037;-75
2022/06/06 02:47:29;;;;;;;14.20;7.18;;;14.00;99.90;;;;;;5078059;28;20044;-75
2022/06/06 02:49:55;;;;;;;12.25;7.05;;;14.00;99.90;;;;;;5078243;28;20094;-75
2022/06/06 02:52:21;;;;;;;16.23;7.78;;;14.00;99.90;;;;;;5077481;28;20052;-75
2022/06/06 02:54:46;;;;;;;16.20;7.85;;;14.20;99.90;;;;;;5077719;28;20080;-76
2022/06/06 02:57:12;;;;;;;12.93;7.85;;;13.90;99.90;;;;;;5078288;28;20080;-75
2022/06/06 02:59:41;;;;;;;20.98;8.68;;;13.90;99.90;;;;;;5078015;28;20041;-75
2022/06/06 03:02:08;;;;;;;16.27;8.10;;;13.90;99.90;;;;;;5078654;28;20192;-76
2022/06/06 03:04:34;;;;;;;20.02;8.63;;;13.90;99.90;;;;;;5079159;28;20045;-76
2022/06/06 03:07:21;;;;;;;16.73;9.10;;;13.90;99.90;;;;;;5078342;28;20047;-76
2022/06/06 03:10:08;;;;;;;16.10;9.18;;;13.90;99.90;;;;;;5079506;28;20048;-75
2022/06/06 03:12:39;;;;;;;17.60;8.73;;;13.90;99.90;;;;;;5081792;28;20434;-76
2022/06/06 03:15:18;;;;;;;14.63;8.80;;;13.90;99.90;;;;;;5081943;28;20044;-75
2022/06/06 03:21:27;;;;;;;16.98;8.63;;;13.90;99.90;;;;;;5062530;28;20071;-75
2022/06/06 03:24:27;;;;;;;17.83;10.02;;;13.90;99.90;;;;;;5078764;28;20040;-75
2022/06/06 03:27:34;;;;;;;13.15;8.35;;;13.90;99.90;;;;;;5076862;28;20104;-76
2022/06/06 03:30:07;;;;;;;17.10;8.15;;;13.90;99.90;;;;;;5060727;28;20382;-76
2022/06/06 03:32:45;;;;;;;17.45;9.00;;;13.90;99.90;;;;;;5076640;28;20045;-76
2022/06/06 03:35:39;;;;;;;13.77;7.85;;;13.90;99.90;;;;;;5077060;28;20048;-76
2022/06/06 03:38:22;;;;;;;15.18;8.25;;;13.90;99.90;;;;;;5076697;28;20047;-75
2022/06/06 03:41:14;;;;;;;17.88;9.25;;;14.20;99.90;;;;;;5077723;28;20041;-76
2022/06/06 03:44:01;;;;;;;17.48;8.27;;;13.90;99.90;;;;;;5077646;28;20123;-75
2022/06/06 03:46:27;;;;;;;15.07;7.53;;;13.80;99.90;;;;;;5077089;28;20436;-75
2022/06/06 03:49:15;;;;;;;12.40;7.05;;;13.80;99.90;;;;;;5077064;28;20044;-75
2022/06/06 03:52:07;;;;;;;11.82;6.80;;;13.90;99.90;;;;;;5076074;28;20055;-75
2022/06/06 03:54:43;;;;;;;10.93;5.90;;;13.90;99.90;;;;;;5076207;28;20078;-76
2022/06/06 03:57:19;;;;;;;10.85;5.78;;;14.10;99.90;;;;;;5075939;28;20497;-76
2022/06/06 03:59:53;;;;;;;14.75;6.15;;;13.90;99.90;;;;;;5075947;28;20077;-75
2022/06/06 04:02:22;;;;;;;10.27;5.78;;;13.90;99.90;;;;;;5076243;28;20044;-75
2022/06/06 04:04:49;;;;;;;13.98;6.95;;;13.90;99.90;;;;;;5075515;28;20049;-75
2022/06/06 04:07:15;;;;;;;10.55;5.82;;;13.90;99.90;;;;;;5077100;28;20040;-75
2022/06/06 04:09:40;;;;;;;15.32;6.53;;;13.90;99.90;;;;;;5078319;28;20131;-75
2022/06/06 04:12:36;;;;;;;10.98;6.10;;;13.90;99.90;;;;;;5077776;28;20437;-75
2022/06/06 04:15:04;;;;;;;14.32;7.93;;;13.90;99.90;;;;;;5077686;28;20052;-74
2022/06/06 04:17:40;;;;;;;12.38;6.72;;;14.00;99.90;;;;;;5078019;28;20045;-75
2022/06/06 04:20:30;;;;;;;15.32;8.20;;;14.10;99.90;;;;;;5078317;28;20050;-75
2022/06/06 04:23:19;;;;;;;15.90;8.90;;;14.00;99.90;;;;;;5077249;28;20079;-75
2022/06/06 04:25:56;;;;;;;23.33;8.35;;;14.10;99.90;;;;;;5078242;28;20554;-75
2022/06/06 04:28:25;;;;;;;19.75;9.18;;;14.00;99.90;;;;;;5078255;28;20603;-76
2022/06/06 04:31:05;;;;;;;17.17;8.43;;;14.00;99.90;;;;;;5077442;28;20114;-76
2022/06/06 04:33:47;;;;;;;16.60;8.40;;;14.00;99.90;;;;;;5076663;28;20091;-76
2022/06/06 04:36:36;;;;;;;19.67;8.82;;;14.00;99.90;;;;;;5077419;28;20032;-76
2022/06/06 04:39:36;;;;;;;11.30;6.25;;;15.20;99.90;;;;;;5077469;28;20044;-76
2022/06/06 04:42:31;;;;;;;19.80;8.50;;;14.00;99.90;;;;;;5076873;28;20044;-76
2022/06/06 04:45:18;;;;;;;16.85;7.57;;;13.90;99.90;;;;;;5049832;28;20076;-76
2022/06/06 04:47:44;;;;;;;16.35;8.00;;;13.90;99.90;;;;;;5077599;28;20048;-76
2022/06/06 04:50:13;;;;;;;21.48;9.13;;;14.50;99.90;;;;;;5077176;28;20093;-76
2022/06/06 04:52:41;;;;;;;18.52;9.00;;;13.90;99.90;;;;;;5077651;28;20049;-76
2022/06/06 04:55:09;;;;;;;18.63;8.75;;;13.80;99.90;;;;;;5077677;28;20056;-77
2022/06/06 04:57:38;;;;;;;18.73;7.45;;;13.80;99.90;;;;;;5078817;28;20096;-77
2022/06/06 05:00:06;;;;;;;19.67;8.00;;;13.90;99.90;;;;;;5080697;28;20044;-76
2022/06/06 05:02:34;;;;;;;11.35;6.30;;;13.80;99.90;;;;;;5082383;28;20070;-76
2022/06/06 05:04:59;;;;;;;14.77;8.13;;;13.80;99.90;;;;;;5081116;28;20044;-76
2022/06/06 05:07:42;;;;;;;17.25;8.35;;;13.80;99.90;;;;;;5081792;28;20119;-77
2022/06/06 05:10:16;;;;;;;17.83;8.30;;;13.70;99.90;;;;;;5080602;28;20076;-76
2022/06/06 05:13:00;;;;;;;17.50;8.95;;;13.70;99.90;;;;;;5080019;28;20381;-76
2022/06/06 05:15:38;;;;;;;19.80;8.68;;;13.70;99.90;;;;;;5080591;28;20127;-76
2022/06/06 05:18:20;;;;;;;19.40;8.98;;;13.70;99.90;;;;;;5080101;28;20502;-77
2022/06/06 05:20:45;;;;;;;18.30;11.02;;;13.70;99.90;;;;;;5079106;28;20082;-77
2022/06/06 05:23:32;;;;;;;19.70;10.32;;;13.70;99.90;;;;;;5078673;28;20041;-76
2022/06/06 05:26:28;;;;;;;19.77;10.13;;;13.70;99.90;;;;;;5078091;28;20071;-76
2022/06/06 05:29:17;;;;;;;27.27;12.98;;;13.70;99.90;;;;;;5078268;28;20040;-76
2022/06/06 05:32:12;;;;;;;29.98;14.65;;;13.60;99.90;;;;;;5079925;28;20040;-76
2022/06/06 05:34:44;;;;;;;26.20;15.18;;;13.60;99.90;;;;;;5076213;28;20056;-76
2022/06/06 05:37:28;;;;;;;29.95;14.90;;;13.70;99.90;;;;;;5080578;28;20461;-76
2022/06/06 05:40:35;;;;;;;23.92;13.63;;;13.70;99.90;;;;;;5080018;28;20067;-76
2022/06/06 05:43:19;;;;;;;29.30;14.00;;;13.60;99.90;;;;;;5080607;28;20093;-76
2022/06/06 05:46:02;;;;;;;25.85;12.25;;;13.60;99.90;;;;;;5080817;28;20048;-77
2022/06/06 05:48:52;;;;;;;25.88;14.50;;;13.60;99.90;;;;;;5081629;28;20040;-77
2022/06/06 05:51:43;;;;;;;25.40;14.43;;;13.60;99.90;;;;;;5082776;28;20163;-77
2022/06/06 05:54:13;;;;;;;28.25;15.23;;;13.60;99.90;;;;;;5083375;28;20052;-77
2022/06/06 05:56:51;;;;;;;28.23;14.60;;;13.50;99.90;;;;;;5083025;28;20105;-77
2022/06/06 05:59:57;;;;;;;29.17;16.02;;;13.50;99.90;;;;;;5080983;28;20116;-77
2022/06/06 06:02:53;;;;;;;29.45;15.85;;;13.50;99.90;;;;;;5076991;28;20076;-77
2022/06/06 06:05:40;;;;;;;29.73;16.58;;;13.50;99.90;;;;;;5078852;28;20100;-77
2022/06/06 06:08:25;;;;;;;35.72;17.95;;;13.40;99.90;;;;;;5079940;28;20094;-77
2022/06/06 06:11:19;;;;;;;37.60;20.63;;;13.60;99.90;;;;;;5080728;28;20054;-76
2022/06/06 06:13:50;;;;;;;30.45;16.45;;;13.40;99.90;;;;;;5079354;28;20048;-76
2022/06/06 06:16:18;;;;;;;31.20;17.95;;;13.50;99.90;;;;;;5080857;28;20102;-76
2022/06/06 06:18:53;;;;;;;38.97;21.88;;;13.40;99.90;;;;;;5078841;28;20143;-77
2022/06/06 06:21:23;;;;;;;36.92;20.92;;;13.40;99.90;;;;;;5079687;28;20063;-76
2022/06/06 06:23:58;;;;;;;34.25;20.13;;;13.40;99.90;;;;;;5079040;28;20047;-77
2022/06/06 06:26:27;;;;;;;35.20;20.88;;;13.40;99.90;;;;;;5080372;28;20049;-77
2022/06/06 06:28:54;;;;;;;31.10;16.30;;;13.40;99.90;;;;;;5081250;28;20052;-77
2022/06/06 06:31:46;;;;;;;38.28;18.60;;;13.40;99.90;;;;;;5079631;28;20524;-77
2022/06/06 06:34:36;;;;;;;26.40;13.88;;;13.40;99.90;;;;;;5080500;28;20036;-77
2022/06/06 06:37:32;;;;;;;27.98;15.13;;;13.40;99.90;;;;;;5080557;28;20045;-76
2022/06/06 06:40:41;;;;;;;30.80;15.30;;;13.50;99.90;;;;;;5079624;28;20044;-77
2022/06/06 06:43:27;;;;;;;31.35;14.00;;;13.50;99.90;;;;;;5080748;28;20108;-76
2022/06/06 06:46:00;;;;;;;26.55;14.05;;;13.60;99.90;;;;;;5085924;28;20049;-77
2022/06/06 06:48:38;;;;;;;21.92;12.88;;;13.60;99.90;;;;;;5085835;28;20040;-77
2022/06/06 06:51:10;;;;;;;20.63;11.63;;;13.60;99.90;;;;;;5087401;28;20496;-77
2022/06/06 06:53:47;;;;;;;18.77;10.75;;;13.60;99.90;;;;;;5087402;28;20041;-77
2022/06/06 06:56:44;;;;;;;24.02;13.02;;;13.60;99.90;;;;;;5088047;28;20048;-77
2022/06/06 06:59:44;;;;;;;19.20;11.80;;;13.60;99.90;;;;;;5085908;28;20063;-77
2022/06/06 07:08:38;;;;;;;17.85;10.55;;;14.20;99.90;;;;;;5076642;28;20052;-77
2022/06/06 07:11:07;;;;;;;17.52;10.43;;;14.50;99.90;;;;;;5087524;28;20048;-77
2022/06/06 07:13:51;;;;;;;19.17;10.43;;;14.60;99.90;;;;;;5087220;28;20072;-77
2022/06/06 07:16:29;;;;;;;18.02;9.18;;;15.30;99.90;;;;;;5087762;28;20237;-77
2022/06/06 07:19:18;;;;;;;16.83;9.43;;;15.80;99.90;;;;;;5088389;28;20558;-77
2022/06/06 07:21:46;;;;;;;13.98;7.07;;;16.00;99.90;;;;;;5087052;28;20496;-77
2022/06/06 07:24:17;;;;;;;11.30;6.63;;;16.50;99.90;;;;;;5091553;28;20044;-78
2022/06/06 07:26:44;;;;;;;14.77;7.07;;;17.20;99.90;;;;;;5106417;28;20070;-78
2022/06/06 07:29:16;;;;;;;10.48;5.35;;;17.80;99.90;;;;;;5101483;28;20072;-78
2022/06/06 07:32:01;;;;;;;7.82;4.97;;;18.80;99.90;;;;;;5088600;28;20036;-78
2022/06/06 07:34:48;;;;;;;7.83;4.43;;;18.30;99.90;;;;;;5088461;28;20040;-78
2022/06/06 07:37:16;;;;;;;9.80;5.28;;;17.70;99.90;;;;;;5082215;28;20048;-78
2022/06/06 07:39:55;;;;;;;8.77;4.47;;;17.10;99.90;;;;;;5098109;28;20090;-77
2022/06/06 07:42:58;;;;;;;6.05;2.95;;;16.80;99.90;;;;;;5081380;28;20098;-77
2022/06/06 07:45:38;;;;;;;7.15;3.17;;;17.00;99.90;;;;;;5081731;28;20055;-78
2022/06/06 07:48:16;;;;;;;4.40;2.50;;;17.50;99.90;;;;;;5082587;28;20060;-78
2022/06/06 07:50:57;;;;;;;5.53;2.85;;;17.80;99.90;;;;;;5102334;28;20048;-78
2022/06/06 07:53:41;;;;;;;4.72;2.20;;;17.80;99.90;;;;;;5101370;28;20126;-77
2022/06/06 07:56:28;;;;;;;4.97;2.72;;;17.50;99.90;;;;;;5100087;28;20063;-77
2022/06/06 07:59:21;;;;;;;6.82;2.97;;;17.40;99.90;;;;;;5100074;28;20052;-77
2022/06/06 08:02:03;;;;;;;7.13;3.25;;;17.20;99.90;;;;;;5101493;28;20108;-77
2022/06/06 08:04:54;;;;;;;9.52;3.40;;;17.50;99.90;;;;;;5099613;28;20044;-77
2022/06/06 08:07:39;;;;;;;6.30;3.22;;;17.30;99.90;;;;;;5099926;28;20044;-78
2022/06/06 08:10:19;;;;;;;8.48;3.10;;;17.70;99.90;;;;;;5092545;28;20059;-78
2022/06/06 08:13:10;;;;;;;8.77;3.22;;;18.80;99.90;;;;;;5080537;28;20045;-78
2022/06/06 08:16:20;;;;;;;4.82;2.60;;;19.40;99.90;;;;;;5099886;28;20044;-78
2022/06/06 08:19:10;;;;;;;4.90;2.90;;;19.70;99.90;;;;;;5091581;28;20048;-78
2022/06/06 08:21:39;;;;;;;7.28;2.75;;;19.40;99.90;;;;;;5099080;28;20044;-78
2022/06/06 08:24:07;;;;;;;8.73;3.58;;;19.00;99.90;;;;;;5093268;28;20036;-78
2022/06/06 08:26:40;;;;;;;8.50;3.45;;;18.50;99.90;;;;;;5086498;28;20044;-78
2022/06/06 08:29:08;;;;;;;6.50;4.07;;;18.10;99.90;;;;;;5096280;28;20568;-78
2022/06/06 08:31:34;;;;;;;8.40;3.20;;;17.90;99.90;;;;;;5101265;28;20036;-79
2022/06/06 08:34:00;;;;;;;8.52;3.88;;;18.30;99.90;;;;;;5099779;28;20050;-79
2022/06/06 08:36:49;;;;;;;8.63;4.15;;;19.00;99.90;;;;;;5100730;28;20036;-79
2022/06/06 08:39:29;;;;;;;16.58;4.50;;;19.40;99.90;;;;;;5064073;28;20040;-79
2022/06/06 08:42:14;;;;;;;7.28;4.10;;;19.10;99.90;;;;;;5088852;28;20138;-79
2022/06/06 08:44:43;;;;;;;7.10;3.60;;;19.20;99.90;;;;;;5100529;28;20048;-79
2022/06/06 08:47:19;;;;;;;7.75;3.55;;;19.60;99.90;;;;;;5100191;28;20087;-79
2022/06/06 08:52:50;;;;;;;7.53;2.70;;;21.20;99.90;;;;;;5080494;28;20078;-79
2022/06/06 08:55:37;;;;;;;7.22;2.63;;;21.60;86.80;;;;;;5088066;28;20047;-79
2022/06/06 08:58:18;;;;;;;5.32;2.05;;;21.40;73.80;;;;;;5099737;28;20457;-78
2022/06/06 09:00:58;;;;;;;7.47;2.95;;;20.90;69.50;;;;;;5097158;28;20052;-79
2022/06/06 09:03:38;;;;;;;7.05;3.30;;;20.50;92.90;;;;;;5088486;28;20048;-79
2022/06/06 09:06:28;;;;;;;9.57;3.05;;;21.10;76.10;;;;;;5079601;28;20110;-79
2022/06/06 09:09:31;;;;;;;6.88;2.80;;;21.50;68.40;;;;;;5079573;28;20076;-80
2022/06/06 09:12:15;;;;;;;5.88;3.35;;;22.00;63.50;;;;;;5078761;28;20052;-79
2022/06/06 09:15:06;;;;;;;6.70;2.63;;;22.50;57.40;;;;;;5079504;28;20075;-80
2022/06/06 09:17:52;;;;;;;6.22;1.98;;;22.70;50.60;;;;;;5081331;28;20041;-79
2022/06/06 09:20:26;;;;;;;5.82;2.33;;;21.70;45.90;;;;;;5098997;28;20103;-79
2022/06/06 09:23:01;;;;;;;4.25;1.45;;;21.20;53.70;;;;;;5101541;28;20058;-80
2022/06/06 09:25:35;;;;;;;4.38;1.83;;;20.70;48.50;;;;;;5101709;28;20040;-79
2022/06/06 09:28:41;;;;;;;4.63;1.30;;;20.70;57.30;;;;;;5097391;28;20158;-79
2022/06/06 09:31:35;;;;;;;2.97;0.93;;;20.80;53.30;;;;;;5079323;28;20048;-80
2022/06/06 09:34:18;;;;;;;4.78;1.40;;;20.00;43.50;;;;;;5096095;28;20074;-79
2022/06/06 09:36:54;;;;;;;4.97;1.17;;;19.90;53.60;;;;;;5100067;28;20103;-79
2022/06/06 09:39:33;;;;;;;;;;;20.50;54.60;;;;;;5099450;28;20051;-79
2022/06/06 09:42:07;;;;;;;6.82;1.15;;;21.00;50.40;;;;;;5086030;28;19982;-80
2022/06/06 09:44:58;;;;;;;4.88;1.50;;;20.70;45.00;;;;;;5077394;28;20071;-79
2022/06/06 09:47:54;;;;;;;3.28;1.30;;;19.90;45.80;;;;;;5078160;28;20044;-78
2022/06/06 09:50:38;;;;;;;6.85;1.52;;;19.40;63.30;;;;;;5078669;28;20041;-80
2022/06/06 09:53:41;;;;;;;6.15;1.25;;;18.90;79.80;;;;;;5080073;28;20048;-80
2022/06/06 09:59:39;;;;;;;6.47;1.50;;;18.10;83.00;;;;;;5079769;28;20048;-79
2022/06/06 10:02:39;;;;;;;7.38;1.60;;;17.80;80.80;;;;;;5094603;28;20039;-79
2022/06/06 10:05:17;;;;;;;3.58;1.20;;;17.50;90.30;;;;;;5087899;28;20043;-79
2022/06/06 10:08:02;;;;;;;7.28;2.00;;;17.60;93.00;;;;;;5094325;28;20472;-80
2022/06/06 10:10:50;;;;;;;3.05;1.20;;;17.80;87.30;;;;;;5095353;28;20595;-80
2022/06/06 10:13:45;;;;;;;4.93;1.85;;;18.20;93.90;;;;;;5082662;28;20049;-79
2022/06/06 10:16:30;;;;;;;5.15;1.65;;;18.50;91.90;;;;;;5076475;28;20045;-79
2022/06/06 10:19:18;;;;;;;5.00;1.80;;;18.10;96.60;;;;;;5075720;28;20091;-79
2022/06/06 10:22:00;;;;;;;3.20;1.73;;;17.80;99.90;;;;;;5075471;28;20060;-79
2022/06/06 10:24:46;;;;;;;7.03;1.88;;;17.60;99.90;;;;;;5075385;28;20135;-80
2022/06/06 10:27:40;;;;;;;3.70;1.65;;;17.40;99.90;;;;;;5074549;28;20078;-79
2022/06/06 10:30:23;;;;;;;4.13;1.50;;;17.60;99.90;;;;;;5072400;28;20080;-80
2022/06/06 10:33:26;;;;;;;1.23;0.80;;;18.10;99.90;;;;;;5085291;28;20055;-80
2022/06/06 10:36:14;;;;;;;4.88;1.63;;;18.50;97.80;;;;;;5091408;28;20445;-80
2022/06/06 10:39:05;;;;;;;4.28;1.40;;;18.20;94.10;;;;;;5093121;28;20097;-80
2022/06/06 10:41:46;;;;;;;5.55;1.23;;;17.70;93.20;;;;;;5071069;28;20464;-80
2022/06/06 10:44:33;;;;;;;5.63;1.13;;;17.30;95.10;;;;;;5071807;28;20040;-80
2022/06/06 10:47:18;;;;;;;3.35;0.98;;;17.00;93.20;;;;;;5069962;28;20516;-81
2022/06/06 10:50:15;;;;;;;4.65;1.40;;;16.60;98.80;;;;;;5071437;28;20048;-80
2022/06/06 10:52:56;;;;;;;4.22;1.35;;;16.30;99.90;;;;;;5082684;28;20421;-79
2022/06/06 10:55:54;;;;;;;2.28;1.20;;;16.30;99.90;;;;;;5068949;28;20056;-80
2022/06/06 10:58:36;;;;;;;5.60;1.23;;;16.40;99.90;;;;;;5070021;28;20091;-78
2022/06/06 11:01:08;;;;;;;3.25;1.27;;;16.80;99.90;;;;;;5085886;28;20119;-78
2022/06/06 11:04:12;;;;;;;4.07;1.30;;;17.20;99.90;;;;;;5078155;28;20044;-78
2022/06/06 11:07:18;;;;;;;4.53;1.20;;;17.70;99.90;;;;;;5067666;28;20052;-80
2022/06/06 11:10:17;;;;;;;7.15;1.90;;;18.60;99.90;;;;;;5066965;28;20438;-80
2022/06/06 11:13:03;;;;;;;4.72;1.58;;;19.60;99.90;;;;;;5083833;28;20059;-79
2022/06/06 11:15:38;;;;;;;7.68;1.60;;;20.70;67.30;;;;;;5076226;28;20045;-80
2022/06/06 11:18:34;;;;;;;3.53;1.13;;;20.40;59.50;;;;;;5069763;28;20049;-80
2022/06/06 11:21:22;;;;;;;5.07;1.30;;;20.30;63.40;;;;;;5069538;28;20078;-79
2022/06/06 11:23:55;;;;;;;3.95;1.10;;;20.50;55.20;;;;;;5069254;28;20393;-80
2022/06/06 11:26:40;;;;;;;3.15;0.98;;;21.40;41.10;;;;;;5069086;28;20440;-80
2022/06/06 11:29:12;;;;;;;9.50;0.85;;;21.60;38.20;;;;;;5069812;28;20549;-79
2022/06/06 11:31:46;;;;;;;4.45;1.20;;;21.90;28.70;;;;;;5073529;28;20048;-79
2022/06/06 11:34:27;;;;;;;2.53;0.90;;;21.80;20.50;;;;;;5087559;28;20373;-80
2022/06/06 11:37:02;;;;;;;5.85;1.38;;;21.70;27.40;;;;;;5092571;28;20448;-80
2022/06/06 11:40:06;;;;;;;1.80;0.98;;;22.10;30.40;;;;;;5092871;28;20044;-80
2022/06/06 11:43:13;;;;;;;3.03;1.38;;;21.90;26.40;;;;;;5093246;28;20056;-80
2022/06/06 11:46:36;;;;;;;3.38;1.15;;;20.60;58.20;;;;;;5093449;28;20235;-79
2022/06/06 11:49:20;;;;;;;5.03;1.10;;;19.30;71.00;;;;;;5037139;28;20063;-79
2022/06/06 11:52:16;;;;;;;2.97;1.13;;;18.40;73.10;;;;;;5049752;28;20060;-79
2022/06/06 11:55:20;;;;;;;2.90;1.20;;;18.40;74.60;;;;;;5067592;28;20090;-79
2022/06/06 11:58:28;;;;;;;11.75;1.50;;;18.40;90.00;;;;;;5072195;28;20056;-79
2022/06/06 12:01:20;;;;;;;5.63;1.60;;;18.80;79.60;;;;;;5082576;28;20407;-80
2022/06/06 12:03:59;;;;;;;5.57;1.50;;;20.30;67.70;;;;;;5089164;28;20052;-79
2022/06/06 12:06:46;;;;;;;5.45;1.20;;;21.90;46.00;;;;;;5089098;28;20094;-79
2022/06/06 12:09:42;;;;;;;5.88;0.80;;;22.30;19.40;;;;;;5072711;28;20386;-79
2022/06/06 12:12:18;;;;;;;3.45;1.05;;;22.30;10.80;;;;;;5077376;28;20080;-80
2022/06/06 12:15:11;;;;;;;3.50;1.05;;;22.00;11.70;;;;;;5089799;28;20052;-79
2022/06/06 12:18:08;;;;;;;6.88;1.10;;;21.60;24.60;;;;;;5090824;28;20052;-80
2022/06/06 12:20:33;;;;;;;4.45;1.05;;;21.20;22.30;;;;;;5083575;28;20083;-80
2022/06/06 12:23:20;;;;;;;6.00;1.00;;;20.80;25.90;;;;;;5083365;28;20075;-80
2022/06/06 12:26:19;;;;;;;3.10;0.73;;;20.60;31.10;;;;;;5084117;28;20119;-80
2022/06/06 12:29:17;;;;;;;1.58;0.50;;;20.50;29.80;;;;;;5071538;28;20045;-79
2022/06/06 12:31:54;;;;;;;2.55;0.70;;;20.80;21.30;;;;;;5074054;28;20099;-80
2022/06/06 12:34:47;;;;;;;3.28;0.60;;;21.40;17.90;;;;;;5093907;28;20070;-80
2022/06/06 12:37:22;;;;;;;2.20;0.57;;;21.60;11.40;;;;;;5093780;28;20188;-80
2022/06/06 12:40:12;;;;;;;3.60;0.80;;;21.70;7.30;;;;;;5094243;28;20127;-80
2022/06/06 12:43:02;;;;;;;1.55;0.70;;;21.40;10.40;;;;;;5093535;28;20047;-80
2022/06/06 12:45:51;;;;;;;2.55;0.63;;;21.40;10.30;;;;;;5094036;28;20075;-80
2022/06/06 12:48:38;;;;;;;3.00;0.60;;;21.30;11.50;;;;;;5093947;28;20495;-79
2022/06/06 12:51:45;;;;;;;5.32;0.80;;;21.10;11.60;;;;;;5093954;28;20040;-79
2022/06/06 12:57:45;;;;;;;1.10;0.52;;;20.70;13.90;;;;;;5093970;28;20070;-79
2022/06/06 13:00:13;;;;;;;2.35;0.93;;;20.40;12.00;;;;;;5093819;28;20103;-79
2022/06/06 13:03:13;;;;;;;6.55;0.95;;;20.20;17.40;;;;;;5093644;28;20442;-79
2022/06/06 13:05:53;;;;;;;3.03;0.65;;;19.90;18.50;;;;;;5093723;28;20495;-79
2022/06/06 13:08:51;;;;;;;6.55;0.90;;;19.80;21.50;;;;;;5093614;28;20036;-80
2022/06/06 13:11:28;;;;;;;3.55;0.80;;;19.30;28.60;;;;;;5069738;28;20059;-79
2022/06/06 13:14:16;;;;;;;4.97;1.60;;;18.70;48.40;;;;;;5093713;28;20101;-79
2022/06/06 13:17:22;;;;;;;4.53;1.83;;;18.00;80.60;;;;;;5093650;28;20044;-78
2022/06/06 13:20:08;;;;;;;4.20;1.58;;;17.10;99.90;;;;;;5093921;28;20048;-79
2022/06/06 13:22:52;;;;;;;3.83;1.48;;;16.70;99.90;;;;;;5093473;28;20129;-79
2022/06/06 13:25:51;;;;;;;5.22;1.70;;;16.70;99.90;;;;;;5092007;28;20040;-79
2022/06/06 13:28:21;;;;;;;4.38;1.30;;;16.80;99.90;;;;;;5093035;28;20284;-79
2022/06/06 13:30:46;;;;;;;4.63;1.27;;;16.70;99.90;;;;;;5093522;28;20065;-80
2022/06/06 13:33:21;;;;;;;4.35;1.30;;;16.70;99.90;;;;;;5093394;28;20547;-79
2022/06/06 13:35:52;;;;;;;2.88;1.35;;;16.80;99.90;;;;;;5092413;28;20102;-79
2022/06/06 13:38:24;;;;;;;6.75;1.73;;;17.10;99.90;;;;;;5093178;28;20047;-80
2022/06/06 13:41:08;;;;;;;5.93;1.48;;;16.70;99.90;;;;;;5092041;28;20048;-80
2022/06/06 13:44:00;;;;;;;2.92;1.23;;;16.70;99.90;;;;;;5092988;28;20051;-79
2022/06/06 13:46:48;;;;;;;2.90;1.13;;;16.50;99.90;;;;;;5092992;28;20097;-79
2022/06/06 13:49:43;;;;;;;2.72;0.88;;;16.30;99.90;;;;;;5093194;28;20377;-79
2022/06/06 13:52:42;;;;;;;2.90;1.10;;;15.90;99.90;;;;;;5093153;28;20079;-79
2022/06/06 13:55:32;;;;;;;3.70;0.90;;;15.70;99.90;;;;;;5090117;28;20048;-78
2022/06/06 13:58:25;;;;;;;9.10;2.53;;;15.50;99.90;;;;;;5095487;28;20105;-74
2022/06/06 14:01:06;;;;;;;9.05;2.03;;;14.80;99.90;;;;;;5094780;28;20071;-75
2022/06/06 14:03:50;;;;;;;7.13;2.13;;;14.20;99.90;;;;;;5094545;28;20066;-74
2022/06/06 14:06:35;;;;;;;4.82;3.00;;;14.00;99.90;;;;;;5094401;28;20101;-74
2022/06/06 14:09:01;;;;;;;4.55;2.33;;;13.90;99.90;;;;;;5094654;28;20096;-74